sensor_id;sensor_type;location;lat;lon;timestamp;pressure;altitude;pressure_sealevel;temperature;humidity
14204;BME280;7185;51.854;6.622;2023-05-11T00:00:25;101079.50;;;17.77;88.44
14204;BME280;7185;51.854;6.622;2023-05-11T00:02:56;101083.75;;;17.81;87.81
14204;BME280;7185;51.854;6.622;2023-05-11T00:05:28;101075.75;;;17.83;87.86
14204;BME280;7185;51.854;6.622;2023-05-11T00:08:00;101084.00;;;17.75;88.17
14204;BME280;7185;51.854;6.622;2023-05-11T00:10:31;101080.53;;;17.73;88.31
14204;BME280;7185;51.854;6.622;2023-05-11T00:13:04;101078.94;;;17.69;88.68
14204;BME280;7185;51.854;6.622;2023-05-11T00:15:36;101079.78;;;17.69;88.76
14204;BME280;7185;51.854;6.622;2023-05-11T00:18:08;101075.13;;;17.76;88.56
14204;BME280;7185;51.854;6.622;2023-05-11T00:20:39;101069.94;;;17.73;88.48
14204;BME280;7185;51.854;6.622;2023-05-11T00:23:11;101067.97;;;17.78;88.33
14204;BME280;7185;51.854;6.622;2023-05-11T00:25:43;101078.84;;;17.72;88.43
14204;BME280;7185;51.854;6.622;2023-05-11T00:28:16;101073.56;;;17.71;88.51
14204;BME280;7185;51.854;6.622;2023-05-11T00:30:48;101072.06;;;17.65;88.73
14204;BME280;7185;51.854;6.622;2023-05-11T00:33:19;101072.41;;;17.56;88.75
14204;BME280;7185;51.854;6.622;2023-05-11T00:35:51;101072.28;;;17.59;88.99
14204;BME280;7185;51.854;6.622;2023-05-11T00:38:22;101066.97;;;17.59;88.84
14204;BME280;7185;51.854;6.622;2023-05-11T00:40:54;101069.16;;;17.71;88.23
14204;BME280;7185;51.854;6.622;2023-05-11T00:43:27;101067.78;;;17.61;88.46
14204;BME280;7185;51.854;6.622;2023-05-11T00:45:59;101068.59;;;17.63;88.44
14204;BME280;7185;51.854;6.622;2023-05-11T00:48:31;101063.41;;;17.60;88.94
14204;BME280;7185;51.854;6.622;2023-05-11T00:51:03;101061.56;;;17.62;88.94
14204;BME280;7185;51.854;6.622;2023-05-11T00:53:34;101064.78;;;17.70;88.46
14204;BME280;7185;51.854;6.622;2023-05-11T00:56:07;101070.75;;;17.75;87.89
14204;BME280;7185;51.854;6.622;2023-05-11T00:58:40;101068.22;;;17.72;88.06
14204;BME280;7185;51.854;6.622;2023-05-11T01:01:12;101062.91;;;17.50;88.69
14204;BME280;7185;51.854;6.622;2023-05-11T01:03:47;101065.38;;;17.55;88.48
14204;BME280;7185;51.854;6.622;2023-05-11T01:06:26;101065.38;;;17.55;87.64
14204;BME280;7185;51.854;6.622;2023-05-11T01:09:02;101066.84;;;17.62;87.37
14204;BME280;7185;51.854;6.622;2023-05-11T01:11:41;101061.75;;;17.57;87.57
14204;BME280;7185;51.854;6.622;2023-05-11T01:14:19;101064.28;;;17.60;87.68
14204;BME280;7185;51.854;6.622;2023-05-11T01:16:56;101065.50;;;17.51;87.45
14204;BME280;7185;51.854;6.622;2023-05-11T01:19:38;101072.66;;;17.49;87.33
14204;BME280;7185;51.854;6.622;2023-05-11T01:22:22;101075.59;;;17.42;87.48
14204;BME280;7185;51.854;6.622;2023-05-11T01:25:09;101076.84;;;17.33;87.61
14204;BME280;7185;51.854;6.622;2023-05-11T01:27:55;101082.38;;;17.27;88.42
14204;BME280;7185;51.854;6.622;2023-05-11T01:30:42;101081.38;;;17.29;88.78
14204;BME280;7185;51.854;6.622;2023-05-11T01:33:22;101078.66;;;17.31;88.39
14204;BME280;7185;51.854;6.622;2023-05-11T01:35:59;101073.00;;;17.40;87.92
14204;BME280;7185;51.854;6.622;2023-05-11T01:38:37;101067.84;;;17.37;87.38
14204;BME280;7185;51.854;6.622;2023-05-11T01:41:12;101070.44;;;17.39;87.53
14204;BME280;7185;51.854;6.622;2023-05-11T01:43:53;101083.53;;;17.19;87.75
14204;BME280;7185;51.854;6.622;2023-05-11T01:46:31;101079.81;;;17.24;87.87
14204;BME280;7185;51.854;6.622;2023-05-11T01:49:05;101086.28;;;17.16;87.22
14204;BME280;7185;51.854;6.622;2023-05-11T01:51:37;101078.91;;;17.25;87.21
14204;BME280;7185;51.854;6.622;2023-05-11T01:54:10;101089.47;;;17.02;84.87
14204;BME280;7185;51.854;6.622;2023-05-11T01:56:43;101089.53;;;17.01;84.61
14204;BME280;7185;51.854;6.622;2023-05-11T01:59:16;101088.47;;;17.05;83.56
14204;BME280;7185;51.854;6.622;2023-05-11T02:01:49;101096.97;;;16.89;81.63
14204;BME280;7185;51.854;6.622;2023-05-11T02:04:22;101094.78;;;16.77;79.63
14204;BME280;7185;51.854;6.622;2023-05-11T02:06:56;101096.38;;;16.81;80.68
14204;BME280;7185;51.854;6.622;2023-05-11T02:09:30;101099.09;;;16.80;79.54
14204;BME280;7185;51.854;6.622;2023-05-11T02:12:04;101099.75;;;16.86;78.22
14204;BME280;7185;51.854;6.622;2023-05-11T02:14:36;101105.28;;;16.80;77.68
14204;BME280;7185;51.854;6.622;2023-05-11T02:17:10;101104.63;;;16.73;78.83
14204;BME280;7185;51.854;6.622;2023-05-11T02:19:43;101102.25;;;16.66;78.31
14204;BME280;7185;51.854;6.622;2023-05-11T02:22:16;101099.00;;;16.57;79.33
14204;BME280;7185;51.854;6.622;2023-05-11T02:24:50;101114.22;;;16.51;80.54
14204;BME280;7185;51.854;6.622;2023-05-11T02:27:22;101110.03;;;16.45;81.13
14204;BME280;7185;51.854;6.622;2023-05-11T02:29:54;101120.03;;;16.35;81.85
14204;BME280;7185;51.854;6.622;2023-05-11T02:32:29;101116.84;;;16.25;81.39
14204;BME280;7185;51.854;6.622;2023-05-11T02:35:06;101117.47;;;16.34;81.29
14204;BME280;7185;51.854;6.622;2023-05-11T02:37:44;101118.34;;;16.34;80.12
14204;BME280;7185;51.854;6.622;2023-05-11T02:40:18;101120.00;;;16.37;80.58
14204;BME280;7185;51.854;6.622;2023-05-11T02:42:54;101127.63;;;16.46;79.96
14204;BME280;7185;51.854;6.622;2023-05-11T02:45:30;101128.81;;;16.37;79.33
14204;BME280;7185;51.854;6.622;2023-05-11T02:48:07;101130.75;;;16.32;80.91
14204;BME280;7185;51.854;6.622;2023-05-11T02:50:40;101128.16;;;16.31;81.44
14204;BME280;7185;51.854;6.622;2023-05-11T02:53:14;101135.91;;;16.35;81.22
14204;BME280;7185;51.854;6.622;2023-05-11T02:55:47;101132.50;;;16.32;81.24
14204;BME280;7185;51.854;6.622;2023-05-11T02:58:21;101130.69;;;16.34;81.79
14204;BME280;7185;51.854;6.622;2023-05-11T03:00:53;101134.97;;;16.38;81.70
14204;BME280;7185;51.854;6.622;2023-05-11T03:03:26;101129.88;;;16.32;81.44
14204;BME280;7185;51.854;6.622;2023-05-11T03:05:58;101128.16;;;16.31;81.35
14204;BME280;7185;51.854;6.622;2023-05-11T03:08:30;101123.81;;;16.28;81.69
14204;BME280;7185;51.854;6.622;2023-05-11T03:11:02;101130.06;;;16.25;81.64
14204;BME280;7185;51.854;6.622;2023-05-11T03:13:34;101126.56;;;16.25;81.46
14204;BME280;7185;51.854;6.622;2023-05-11T03:16:07;101130.06;;;16.25;81.63
14204;BME280;7185;51.854;6.622;2023-05-11T03:18:42;101133.53;;;16.28;81.62
14204;BME280;7185;51.854;6.622;2023-05-11T03:21:15;101122.75;;;16.34;81.68
14204;BME280;7185;51.854;6.622;2023-05-11T03:23:50;101126.28;;;16.34;82.32
14204;BME280;7185;51.854;6.622;2023-05-11T03:26:26;101120.00;;;16.37;82.10
14204;BME280;7185;51.854;6.622;2023-05-11T03:29:00;101126.28;;;16.34;82.36
14204;BME280;7185;51.854;6.622;2023-05-11T03:31:32;101127.75;;;16.43;82.32
14204;BME280;7185;51.854;6.622;2023-05-11T03:34:06;101119.03;;;16.39;82.32
14204;BME280;7185;51.854;6.622;2023-05-11T03:36:38;101117.38;;;16.37;82.48
14204;BME280;7185;51.854;6.622;2023-05-11T03:39:11;101116.69;;;16.30;82.52
14204;BME280;7185;51.854;6.622;2023-05-11T03:41:43;101118.72;;;16.22;82.68
14204;BME280;7185;51.854;6.622;2023-05-11T03:44:17;101110.66;;;16.27;82.87
14204;BME280;7185;51.854;6.622;2023-05-11T03:46:55;101110.75;;;16.23;82.90
14204;BME280;7185;51.854;6.622;2023-05-11T03:49:33;101117.66;;;16.28;82.79
14204;BME280;7185;51.854;6.622;2023-05-11T03:52:09;101122.41;;;16.18;83.35
14204;BME280;7185;51.854;6.622;2023-05-11T03:54:42;101113.78;;;16.11;83.36
14204;BME280;7185;51.854;6.622;2023-05-11T03:57:13;101112.13;;;16.08;84.01
14204;BME280;7185;51.854;6.622;2023-05-11T03:59:47;101106.06;;;16.05;84.10
14204;BME280;7185;51.854;6.622;2023-05-11T04:02:19;101104.03;;;16.13;83.73
14204;BME280;7185;51.854;6.622;2023-05-11T04:04:54;101109.31;;;16.13;84.00
14204;BME280;7185;51.854;6.622;2023-05-11T04:07:26;101109.97;;;15.93;84.68
14204;BME280;7185;51.854;6.622;2023-05-11T04:10:00;101115.44;;;15.88;85.77
14204;BME280;7185;51.854;6.622;2023-05-11T04:12:32;101116.44;;;16.11;84.89
14204;BME280;7185;51.854;6.622;2023-05-11T04:15:05;101105.88;;;16.11;85.48
14204;BME280;7185;51.854;6.622;2023-05-11T04:17:37;101107.72;;;16.09;86.27
14204;BME280;7185;51.854;6.622;2023-05-11T04:20:10;101110.31;;;16.11;86.07
14204;BME280;7185;51.854;6.622;2023-05-11T04:22:42;101106.06;;;16.05;86.17
14204;BME280;7185;51.854;6.622;2023-05-11T04:25:13;101105.06;;;16.09;86.44
14204;BME280;7185;51.854;6.622;2023-05-11T04:27:47;101109.69;;;16.02;86.81
14204;BME280;7185;51.854;6.622;2023-05-11T04:30:19;101107.81;;;16.06;87.21
14204;BME280;7185;51.854;6.622;2023-05-11T04:32:50;101113.38;;;15.97;86.77
14204;BME280;7185;51.854;6.622;2023-05-11T04:35:24;101112.06;;;15.83;87.58
14204;BME280;7185;51.854;6.622;2023-05-11T04:37:58;101117.19;;;15.88;87.70
14204;BME280;7185;51.854;6.622;2023-05-11T04:40:30;101115.31;;;15.91;87.55
14204;BME280;7185;51.854;6.622;2023-05-11T04:43:02;101116.03;;;15.97;86.94
14204;BME280;7185;51.854;6.622;2023-05-11T04:45:33;101113.09;;;16.06;86.47
14204;BME280;7185;51.854;6.622;2023-05-11T04:48:05;101101.88;;;15.99;86.35
14204;BME280;7185;51.854;6.622;2023-05-11T04:50:42;101106.69;;;15.86;87.17
14204;BME280;7185;51.854;6.622;2023-05-11T04:53:13;101099.81;;;15.79;88.01
14204;BME280;7185;51.854;6.622;2023-05-11T04:55:45;101110.41;;;15.79;89.21
14204;BME280;7185;51.854;6.622;2023-05-11T04:58:17;101110.31;;;15.82;89.37
14204;BME280;7185;51.854;6.622;2023-05-11T05:00:49;101111.69;;;15.96;89.01
14204;BME280;7185;51.854;6.622;2023-05-11T05:03:22;101105.88;;;16.11;88.14
14204;BME280;7185;51.854;6.622;2023-05-11T05:05:55;101103.81;;;16.21;87.52
14204;BME280;7185;51.854;6.622;2023-05-11T05:08:26;101108.16;;;16.22;87.44
14204;BME280;7185;51.854;6.622;2023-05-11T05:10:58;101113.22;;;16.28;87.77
14204;BME280;7185;51.854;6.622;2023-05-11T05:13:30;101123.16;;;16.21;88.18
14204;BME280;7185;51.854;6.622;2023-05-11T05:16:02;101123.72;;;16.31;87.82
14204;BME280;7185;51.854;6.622;2023-05-11T05:18:34;101125.41;;;16.34;88.68
14204;BME280;7185;51.854;6.622;2023-05-11T05:21:07;101133.03;;;16.43;88.52
14204;BME280;7185;51.854;6.622;2023-05-11T05:23:39;101140.00;;;16.46;88.93
14204;BME280;7185;51.854;6.622;2023-05-11T05:26:10;101147.47;;;16.60;88.77
14204;BME280;7185;51.854;6.622;2023-05-11T05:28:42;101143.41;;;16.75;88.26
14204;BME280;7185;51.854;6.622;2023-05-11T05:31:14;101145.22;;;16.47;88.25
14204;BME280;7185;51.854;6.622;2023-05-11T05:33:47;101149.31;;;16.57;88.86
14204;BME280;7185;51.854;6.622;2023-05-11T05:36:20;101148.47;;;16.55;88.98
14204;BME280;7185;51.854;6.622;2023-05-11T05:38:52;101150.81;;;16.65;88.85
14204;BME280;7185;51.854;6.622;2023-05-11T05:41:24;101151.34;;;16.75;88.40
14204;BME280;7185;51.854;6.622;2023-05-11T05:43:56;101159.19;;;16.78;88.47
14204;BME280;7185;51.854;6.622;2023-05-11T05:46:27;101154.75;;;16.78;87.94
14204;BME280;7185;51.854;6.622;2023-05-11T05:48:59;101159.94;;;16.81;86.50
14204;BME280;7185;51.854;6.622;2023-05-11T05:51:32;101158.09;;;16.83;86.87
14204;BME280;7185;51.854;6.622;2023-05-11T05:54:04;101164.06;;;16.90;86.46
14204;BME280;7185;51.854;6.622;2023-05-11T05:56:36;101168.34;;;16.94;86.11
14204;BME280;7185;51.854;6.622;2023-05-11T05:59:08;101169.91;;;17.00;85.03
14204;BME280;7185;51.854;6.622;2023-05-11T06:01:40;101165.16;;;17.10;85.90
14204;BME280;7185;51.854;6.622;2023-05-11T06:04:15;101168.16;;;17.24;85.85
14204;BME280;7185;51.854;6.622;2023-05-11T06:06:48;101174.78;;;17.36;84.38
14204;BME280;7185;51.854;6.622;2023-05-11T06:09:20;101173.25;;;17.52;85.86
14204;BME280;7185;51.854;6.622;2023-05-11T06:11:52;101174.84;;;17.80;84.24
14204;BME280;7185;51.854;6.622;2023-05-11T06:14:24;101171.72;;;17.93;83.73
14204;BME280;7185;51.854;6.622;2023-05-11T06:16:56;101176.31;;;18.11;82.27
14204;BME280;7185;51.854;6.622;2023-05-11T06:19:27;101179.50;;;17.97;80.63
14204;BME280;7185;51.854;6.622;2023-05-11T06:22:00;101187.03;;;18.08;81.23
14204;BME280;7185;51.854;6.622;2023-05-11T06:24:32;101185.19;;;18.10;80.98
14204;BME280;7185;51.854;6.622;2023-05-11T06:27:04;101184.03;;;18.18;81.21
14204;BME280;7185;51.854;6.622;2023-05-11T06:29:36;101188.50;;;18.15;82.01
14204;BME280;7185;51.854;6.622;2023-05-11T06:32:08;101180.81;;;18.09;81.49
14204;BME280;7185;51.854;6.622;2023-05-11T06:34:40;101180.13;;;18.26;81.02
14204;BME280;7185;51.854;6.622;2023-05-11T06:37:15;101190.44;;;18.34;81.30
14204;BME280;7185;51.854;6.622;2023-05-11T06:39:51;101180.16;;;18.47;79.98
14204;BME280;7185;51.854;6.622;2023-05-11T06:42:23;101185.78;;;18.39;79.84
14204;BME280;7185;51.854;6.622;2023-05-11T06:44:55;101181.56;;;18.56;79.89
14204;BME280;7185;51.854;6.622;2023-05-11T06:47:27;101178.38;;;18.47;79.36
14204;BME280;7185;51.854;6.622;2023-05-11T06:49:58;101185.91;;;18.36;77.51
14204;BME280;7185;51.854;6.622;2023-05-11T06:52:33;101177.31;;;18.52;79.19
14204;BME280;7185;51.854;6.622;2023-05-11T06:55:06;101182.03;;;18.66;78.02
14204;BME280;7185;51.854;6.622;2023-05-11T06:57:37;101191.66;;;18.68;77.77
14204;BME280;7185;51.854;6.622;2023-05-11T07:00:10;101191.94;;;18.62;76.18
14204;BME280;7185;51.854;6.622;2023-05-11T07:02:42;101189.28;;;18.83;76.03
14204;BME280;7185;51.854;6.622;2023-05-11T07:05:14;101184.34;;;18.73;76.88
14204;BME280;7185;51.854;6.622;2023-05-11T07:07:47;101189.66;;;18.95;76.60
14204;BME280;7185;51.854;6.622;2023-05-11T07:10:19;101189.81;;;19.11;76.25
14204;BME280;7185;51.854;6.622;2023-05-11T07:12:51;101186.34;;;18.89;74.81
14204;BME280;7185;51.854;6.622;2023-05-11T07:15:23;101181.50;;;19.19;75.40
14204;BME280;7185;51.854;6.622;2023-05-11T07:17:56;101183.59;;;19.32;74.83
14204;BME280;7185;51.854;6.622;2023-05-11T07:20:27;101186.72;;;19.41;73.93
14204;BME280;7185;51.854;6.622;2023-05-11T07:23:01;101186.84;;;19.77;71.82
14204;BME280;7185;51.854;6.622;2023-05-11T07:25:33;101188.34;;;20.01;71.83
14204;BME280;7185;51.854;6.622;2023-05-11T07:28:05;101184.22;;;20.13;70.96
14204;BME280;7185;51.854;6.622;2023-05-11T07:30:36;101188.81;;;20.29;70.54
14204;BME280;7185;51.854;6.622;2023-05-11T07:33:14;101195.94;;;20.46;68.72
14204;BME280;7185;51.854;6.622;2023-05-11T07:35:46;101194.22;;;20.45;68.10
14204;BME280;7185;51.854;6.622;2023-05-11T07:38:19;101183.81;;;20.58;69.07
14204;BME280;7185;51.854;6.622;2023-05-11T07:40:50;101193.97;;;20.67;64.54
14204;BME280;7185;51.854;6.622;2023-05-11T07:43:22;101191.03;;;20.73;63.91
14204;BME280;7185;51.854;6.622;2023-05-11T07:45:54;101189.84;;;20.96;63.62
14204;BME280;7185;51.854;6.622;2023-05-11T07:48:25;101186.22;;;20.97;62.59
14204;BME280;7185;51.854;6.622;2023-05-11T07:50:57;101195.31;;;20.93;64.60
14204;BME280;7185;51.854;6.622;2023-05-11T07:53:45;101188.31;;;20.75;64.56
14204;BME280;7185;51.854;6.622;2023-05-11T07:56:17;101192.09;;;21.04;64.08
14204;BME280;7185;51.854;6.622;2023-05-11T07:58:49;101187.78;;;21.01;64.01
14204;BME280;7185;51.854;6.622;2023-05-11T08:01:20;101184.72;;;21.09;63.46
14204;BME280;7185;51.854;6.622;2023-05-11T08:03:52;101175.72;;;20.94;61.58
14204;BME280;7185;51.854;6.622;2023-05-11T08:06:26;101184.88;;;21.06;62.71
14204;BME280;7185;51.854;6.622;2023-05-11T08:08:59;101177.19;;;21.33;65.34
14204;BME280;7185;51.854;6.622;2023-05-11T08:11:30;101186.31;;;21.29;63.90
14204;BME280;7185;51.854;6.622;2023-05-11T08:14:03;101184.66;;;21.60;62.62
14204;BME280;7185;51.854;6.622;2023-05-11T08:16:35;101184.84;;;21.57;61.35
14204;BME280;7185;51.854;6.622;2023-05-11T08:19:07;101190.63;;;21.48;62.25
14204;BME280;7185;51.854;6.622;2023-05-11T08:21:39;101186.66;;;21.23;65.20
14204;BME280;7185;51.854;6.622;2023-05-11T08:24:12;101187.25;;;21.62;63.92
14204;BME280;7185;51.854;6.622;2023-05-11T08:26:44;101189.97;;;21.60;64.41
14204;BME280;7185;51.854;6.622;2023-05-11T08:29:15;101178.81;;;21.70;63.50
14204;BME280;7185;51.854;6.622;2023-05-11T08:31:48;101180.53;;;21.71;62.21
14204;BME280;7185;51.854;6.622;2023-05-11T08:34:20;101184.13;;;21.86;61.46
14204;BME280;7185;51.854;6.622;2023-05-11T08:36:52;101183.53;;;21.96;62.83
14204;BME280;7185;51.854;6.622;2023-05-11T08:39:38;101184.50;;;21.95;60.73
14204;BME280;7185;51.854;6.622;2023-05-11T08:42:12;101182.22;;;22.04;61.87
14204;BME280;7185;51.854;6.622;2023-05-11T08:44:47;101185.31;;;22.12;60.10
14204;BME280;7185;51.854;6.622;2023-05-11T08:47:19;101180.59;;;22.01;60.00
14204;BME280;7185;51.854;6.622;2023-05-11T08:49:51;101185.16;;;21.83;60.56
14204;BME280;7185;51.854;6.622;2023-05-11T08:52:24;101193.09;;;21.69;59.27
14204;BME280;7185;51.854;6.622;2023-05-11T08:54:56;101187.53;;;21.40;60.20
14204;BME280;7185;51.854;6.622;2023-05-11T08:57:29;101188.19;;;21.27;60.94
14204;BME280;7185;51.854;6.622;2023-05-11T09:00:02;101194.53;;;21.09;62.18
14204;BME280;7185;51.854;6.622;2023-05-11T09:02:34;101197.84;;;20.79;61.88
14204;BME280;7185;51.854;6.622;2023-05-11T09:05:07;101196.88;;;20.62;62.68
14204;BME280;7185;51.854;6.622;2023-05-11T09:07:39;101198.53;;;20.65;60.84
14204;BME280;7185;51.854;6.622;2023-05-11T09:10:14;101190.47;;;20.66;62.73
14204;BME280;7185;51.854;6.622;2023-05-11T09:12:46;101192.66;;;20.58;63.71
14204;BME280;7185;51.854;6.622;2023-05-11T09:15:18;101198.47;;;20.66;62.26
14204;BME280;7185;51.854;6.622;2023-05-11T09:17:50;101197.75;;;20.63;61.80
14204;BME280;7185;51.854;6.622;2023-05-11T09:20:26;101204.94;;;20.61;61.35
14204;BME280;7185;51.854;6.622;2023-05-11T09:22:58;101196.09;;;20.60;61.11
14204;BME280;7185;51.854;6.622;2023-05-11T09:25:47;101196.47;;;20.52;62.00
14204;BME280;7185;51.854;6.622;2023-05-11T09:28:23;101191.38;;;20.48;62.42
14204;BME280;7185;51.854;6.622;2023-05-11T09:31:06;101187.25;;;20.60;61.18
14204;BME280;7185;51.854;6.622;2023-05-11T09:33:38;101191.72;;;20.59;61.99
14204;BME280;7185;51.854;6.622;2023-05-11T09:36:21;101189.59;;;20.66;61.54
14204;BME280;7185;51.854;6.622;2023-05-11T09:38:53;101187.78;;;20.66;61.82
14204;BME280;7185;51.854;6.622;2023-05-11T09:41:27;101186.88;;;20.67;61.74
14204;BME280;7185;51.854;6.622;2023-05-11T09:44:06;101187.97;;;20.46;63.40
14204;BME280;7185;51.854;6.622;2023-05-11T09:46:40;101199.03;;;20.73;61.28
14204;BME280;7185;51.854;6.622;2023-05-11T09:52:23;101194.94;;;20.83;63.03
14204;BME280;7185;51.854;6.622;2023-05-11T09:54:54;101199.63;;;20.96;62.88
14204;BME280;7185;51.854;6.622;2023-05-11T09:57:29;101197.88;;;21.12;63.17
14204;BME280;7185;51.854;6.622;2023-05-11T10:00:00;101195.47;;;21.08;62.81
14204;BME280;7185;51.854;6.622;2023-05-11T10:02:34;101193.94;;;20.86;61.82
14204;BME280;7185;51.854;6.622;2023-05-11T10:05:10;101195.47;;;21.08;61.61
14204;BME280;7185;51.854;6.622;2023-05-11T10:07:42;101201.25;;;21.16;61.82
14204;BME280;7185;51.854;6.622;2023-05-11T10:10:14;101196.69;;;21.18;62.08
14204;BME280;7185;51.854;6.622;2023-05-11T10:12:50;101199.91;;;21.25;61.93
14204;BME280;7185;51.854;6.622;2023-05-11T10:29:38;101192.22;;;21.52;60.48
14204;BME280;7185;51.854;6.622;2023-05-11T10:32:10;101198.97;;;21.42;60.50
14204;BME280;7185;51.854;6.622;2023-05-11T10:34:42;101202.13;;;21.32;59.62
14204;BME280;7185;51.854;6.622;2023-05-11T10:37:16;101200.59;;;21.28;59.95
14204;BME280;7185;51.854;6.622;2023-05-11T10:39:50;101199.91;;;20.74;64.20
14204;BME280;7185;51.854;6.622;2023-05-11T10:42:34;101194.25;;;20.80;64.11
14204;BME280;7185;51.854;6.622;2023-05-11T10:45:20;101196.41;;;20.36;65.42
14204;BME280;7185;51.854;6.622;2023-05-11T10:48:15;101189.81;;;20.26;66.20
14204;BME280;7185;51.854;6.622;2023-05-11T10:54:08;101190.94;;;20.40;65.71
14204;BME280;7185;51.854;6.622;2023-05-11T10:57:07;101194.28;;;20.61;65.28
14204;BME280;7185;51.854;6.622;2023-05-11T11:00:35;101189.13;;;20.58;65.85
14204;BME280;7185;51.854;6.622;2023-05-11T11:03:16;101195.63;;;20.52;63.87
14204;BME280;7185;51.854;6.622;2023-05-11T11:05:48;101198.97;;;20.75;63.00
14204;BME280;7185;51.854;6.622;2023-05-11T11:08:20;101195.00;;;20.99;62.63
14204;BME280;7185;51.854;6.622;2023-05-11T11:10:51;101194.91;;;21.18;60.55
14204;BME280;7185;51.854;6.622;2023-05-11T11:13:23;101190.63;;;21.32;61.26
14204;BME280;7185;51.854;6.622;2023-05-11T11:16:11;101189.78;;;21.31;61.28
14204;BME280;7185;51.854;6.622;2023-05-11T11:18:43;101184.84;;;21.40;60.60
14204;BME280;7185;51.854;6.622;2023-05-11T11:21:38;101180.75;;;21.50;61.98
14204;BME280;7185;51.854;6.622;2023-05-11T12:30:54;101157.31;;;23.52;51.10
14204;BME280;7185;51.854;6.622;2023-05-11T12:33:46;101146.72;;;23.93;52.16
14204;BME280;7185;51.854;6.622;2023-05-11T12:36:24;101158.31;;;23.79;50.83
14204;BME280;7185;51.854;6.622;2023-05-11T12:39:10;101145.63;;;24.23;51.51
14204;BME280;7185;51.854;6.622;2023-05-11T12:42:05;101155.56;;;23.66;51.53
14204;BME280;7185;51.854;6.622;2023-05-11T12:44:53;101152.94;;;23.22;53.10
14204;BME280;7185;51.854;6.622;2023-05-11T12:47:36;101149.91;;;23.29;52.78
14204;BME280;7185;51.854;6.622;2023-05-11T12:50:16;101143.66;;;23.43;53.64
14204;BME280;7185;51.854;6.622;2023-05-11T12:52:57;101139.50;;;23.24;52.85
14204;BME280;7185;51.854;6.622;2023-05-11T12:55:55;101135.94;;;23.23;54.09
14204;BME280;7185;51.854;6.622;2023-05-11T12:58:37;101138.59;;;22.66;55.76
14204;BME280;7185;51.854;6.622;2023-05-11T13:01:15;101141.66;;;23.03;55.73
14204;BME280;7185;51.854;6.622;2023-05-11T13:04:04;101143.94;;;23.09;54.95
14204;BME280;7185;51.854;6.622;2023-05-11T13:06:55;101142.16;;;23.24;55.38
14204;BME280;7185;51.854;6.622;2023-05-11T13:09:35;101144.81;;;23.10;54.94
14204;BME280;7185;51.854;6.622;2023-05-11T13:12:17;101153.25;;;23.18;55.33
14204;BME280;7185;51.854;6.622;2023-05-11T13:15:11;101162.97;;;22.59;55.65
14204;BME280;7185;51.854;6.622;2023-05-11T13:18:06;101161.47;;;22.55;58.08
14204;BME280;7185;51.854;6.622;2023-05-11T13:21:13;101173.13;;;21.60;61.61
14204;BME280;7185;51.854;6.622;2023-05-11T13:23:53;101180.00;;;21.64;64.08
14204;BME280;7185;51.854;6.622;2023-05-11T13:26:27;101191.34;;;21.18;67.87
14204;BME280;7185;51.854;6.622;2023-05-11T13:29:16;101190.38;;;20.68;71.14
14204;BME280;7185;51.854;6.622;2023-05-11T13:31:51;101183.16;;;20.52;71.11
14204;BME280;7185;51.854;6.622;2023-05-11T13:34:26;101176.16;;;20.15;71.38
14204;BME280;7185;51.854;6.622;2023-05-11T13:37:14;101186.13;;;19.92;71.82
14204;BME280;7185;51.854;6.622;2023-05-11T13:39:49;101186.69;;;19.80;73.70
14204;BME280;7185;51.854;6.622;2023-05-11T13:42:41;101186.13;;;19.54;75.42
14204;BME280;7185;51.854;6.622;2023-05-11T13:45:30;101185.16;;;19.17;76.34
14204;BME280;7185;51.854;6.622;2023-05-11T13:48:06;101185.19;;;18.96;75.10
14204;BME280;7185;51.854;6.622;2023-05-11T13:50:59;101185.22;;;18.74;77.21
14204;BME280;7185;51.854;6.622;2023-05-11T13:53:56;101177.56;;;18.87;78.77
14204;BME280;7185;51.854;6.622;2023-05-11T13:56:42;101181.50;;;18.78;78.04
14204;BME280;7185;51.854;6.622;2023-05-11T13:59:15;101184.34;;;18.73;80.26
14204;BME280;7185;51.854;6.622;2023-05-11T14:02:00;101185.78;;;18.39;80.65
14204;BME280;7185;51.854;6.622;2023-05-11T14:04:49;101193.53;;;17.77;84.01
14204;BME280;7185;51.854;6.622;2023-05-11T14:07:28;101193.97;;;17.43;84.59
14204;BME280;7185;51.854;6.622;2023-05-11T14:10:14;101190.47;;;17.42;85.39
14204;BME280;7185;51.854;6.622;2023-05-11T14:12:56;101189.16;;;17.52;87.06
14204;BME280;7185;51.854;6.622;2023-05-11T14:15:53;101188.41;;;17.49;85.89
14204;BME280;7185;51.854;6.622;2023-05-11T14:22:29;101189.91;;;17.56;84.44
14204;BME280;7185;51.854;6.622;2023-05-11T14:25:06;101190.44;;;17.66;84.59
14204;BME280;7185;51.854;6.622;2023-05-11T14:31:17;101185.09;;;17.67;82.84
14204;BME280;7185;51.854;6.622;2023-05-11T14:33:49;101180.97;;;17.82;82.29
14204;BME280;7185;51.854;6.622;2023-05-11T14:36:21;101181.88;;;18.05;83.47
14204;BME280;7185;51.854;6.622;2023-05-11T14:38:53;101182.47;;;18.34;82.69
14204;BME280;7185;51.854;6.622;2023-05-11T14:41:25;101179.75;;;18.36;83.31
14204;BME280;7185;51.854;6.622;2023-05-11T14:43:56;101183.41;;;18.54;83.66
14204;BME280;7185;51.854;6.622;2023-05-11T14:46:30;101183.31;;;18.57;82.23
14204;BME280;7185;51.854;6.622;2023-05-11T14:49:04;101184.59;;;18.46;81.76
14204;BME280;7185;51.854;6.622;2023-05-11T14:51:35;101180.84;;;18.30;81.17
14204;BME280;7185;51.854;6.622;2023-05-11T14:54:07;101186.84;;;18.35;81.94
14204;BME280;7185;51.854;6.622;2023-05-11T14:56:38;101180.22;;;18.45;82.19
14204;BME280;7185;51.854;6.622;2023-05-11T14:59:10;101180.75;;;18.54;82.08
14204;BME280;7185;51.854;6.622;2023-05-11T15:01:43;101179.09;;;18.51;82.41
14204;BME280;7185;51.854;6.622;2023-05-11T15:04:15;101179.31;;;18.67;81.48
14204;BME280;7185;51.854;6.622;2023-05-11T15:06:47;101183.03;;;18.63;79.52
14204;BME280;7185;51.854;6.622;2023-05-11T15:09:18;101177.25;;;18.53;80.00
14204;BME280;7185;51.854;6.622;2023-05-11T15:11:50;101177.03;;;18.58;80.12
14204;BME280;7185;51.854;6.622;2023-05-11T15:14:22;101184.09;;;18.79;80.42
14204;BME280;7185;51.854;6.622;2023-05-11T15:16:56;101182.03;;;18.66;81.52